RJCT(METAR)
07/27 17:00
METAR RJCT 270800Z 18007KT 9999 SCT005 BKN007 BKN010 24/22 Q1007 RMK
3ST005 5ST007 7ST010 A2975=
戻る
トップページへ戻る
IMOC Co,.Ltd.